sensor_id;sensor_type;location;lat;lon;timestamp;P1;durP1;ratioP1;P2;durP2;ratioP2
67051;SDS011;53957;47.222;18.670;2022-07-30T00:01:31;404.77;;;375.25;;
67051;SDS011;53957;47.222;18.670;2022-07-30T00:04:37;439.52;;;407.23;;
67051;SDS011;53957;47.222;18.670;2022-07-30T00:07:40;451.70;;;418.10;;
67051;SDS011;53957;47.222;18.670;2022-07-30T00:10:43;384.35;;;355.75;;
67051;SDS011;53957;47.222;18.670;2022-07-30T00:13:47;436.92;;;404.65;;
67051;SDS011;53957;47.222;18.670;2022-07-30T00:16:50;439.20;;;406.33;;
67051;SDS011;53957;47.222;18.670;2022-07-30T00:19:53;442.67;;;410.52;;
67051;SDS011;53957;47.222;18.670;2022-07-30T00:22:57;382.87;;;354.20;;
67051;SDS011;53957;47.222;18.670;2022-07-30T00:26:03;374.42;;;345.90;;
67051;SDS011;53957;47.222;18.670;2022-07-30T00:29:08;380.45;;;351.60;;
67051;SDS011;53957;47.222;18.670;2022-07-30T00:32:11;373.83;;;345.30;;
67051;SDS011;53957;47.222;18.670;2022-07-30T00:35:14;365.52;;;337.95;;
67051;SDS011;53957;47.222;18.670;2022-07-30T00:38:19;350.80;;;325.00;;
67051;SDS011;53957;47.222;18.670;2022-07-30T00:41:23;372.45;;;343.45;;
67051;SDS011;53957;47.222;18.670;2022-07-30T00:44:28;408.85;;;377.95;;
67051;SDS011;53957;47.222;18.670;2022-07-30T00:47:31;419.98;;;388.60;;
67051;SDS011;53957;47.222;18.670;2022-07-30T00:50:34;379.60;;;351.35;;
67051;SDS011;53957;47.222;18.670;2022-07-30T00:53:37;447.85;;;414.63;;
67051;SDS011;53957;47.222;18.670;2022-07-30T00:56:41;472.98;;;436.90;;
67051;SDS011;53957;47.222;18.670;2022-07-30T00:59:44;460.95;;;425.70;;
67051;SDS011;53957;47.222;18.670;2022-07-30T01:02:47;411.52;;;381.85;;
67051;SDS011;53957;47.222;18.670;2022-07-30T01:05:50;430.13;;;398.25;;
67051;SDS011;53957;47.222;18.670;2022-07-30T01:08:53;412.92;;;383.30;;
67051;SDS011;53957;47.222;18.670;2022-07-30T01:11:56;440.90;;;408.33;;
67051;SDS011;53957;47.222;18.670;2022-07-30T01:15:00;449.38;;;416.23;;
67051;SDS011;53957;47.222;18.670;2022-07-30T01:18:07;427.98;;;397.02;;
67051;SDS011;53957;47.222;18.670;2022-07-30T01:21:14;442.55;;;410.37;;
67051;SDS011;53957;47.222;18.670;2022-07-30T01:24:32;449.10;;;416.75;;
67051;SDS011;53957;47.222;18.670;2022-07-30T01:27:44;440.60;;;409.02;;
67051;SDS011;53957;47.222;18.670;2022-07-30T01:30:56;435.15;;;404.08;;
67051;SDS011;53957;47.222;18.670;2022-07-30T01:34:01;422.75;;;392.83;;
67051;SDS011;53957;47.222;18.670;2022-07-30T01:37:05;444.15;;;412.45;;
67051;SDS011;53957;47.222;18.670;2022-07-30T01:40:11;425.65;;;395.60;;
67051;SDS011;53957;47.222;18.670;2022-07-30T01:43:17;416.75;;;387.15;;
67051;SDS011;53957;47.222;18.670;2022-07-30T01:46:21;407.05;;;377.58;;
67051;SDS011;53957;47.222;18.670;2022-07-30T01:49:25;441.30;;;410.40;;
67051;SDS011;53957;47.222;18.670;2022-07-30T01:52:31;456.75;;;424.75;;
67051;SDS011;53957;47.222;18.670;2022-07-30T01:55:38;440.73;;;409.10;;
67051;SDS011;53957;47.222;18.670;2022-07-30T01:58:43;433.77;;;402.48;;
67051;SDS011;53957;47.222;18.670;2022-07-30T02:01:51;446.27;;;414.27;;
67051;SDS011;53957;47.222;18.670;2022-07-30T02:04:54;456.35;;;422.70;;
67051;SDS011;53957;47.222;18.670;2022-07-30T02:08:10;503.30;;;464.48;;
67051;SDS011;53957;47.222;18.670;2022-07-30T02:11:41;437.45;;;407.05;;
67051;SDS011;53957;47.222;18.670;2022-07-30T02:18:35;458.05;;;424.60;;
67051;SDS011;53957;47.222;18.670;2022-07-30T02:21:55;444.67;;;412.85;;
67051;SDS011;53957;47.222;18.670;2022-07-30T02:25:05;414.58;;;385.52;;
67051;SDS011;53957;47.222;18.670;2022-07-30T02:28:10;418.33;;;389.00;;
67051;SDS011;53957;47.222;18.670;2022-07-30T02:31:17;460.45;;;426.95;;
67051;SDS011;53957;47.222;18.670;2022-07-30T02:34:24;445.85;;;414.27;;
67051;SDS011;53957;47.222;18.670;2022-07-30T02:37:28;429.77;;;399.98;;
67051;SDS011;53957;47.222;18.670;2022-07-30T02:40:45;413.35;;;384.60;;
67051;SDS011;53957;47.222;18.670;2022-07-30T02:43:50;439.50;;;409.10;;
67051;SDS011;53957;47.222;18.670;2022-07-30T02:46:54;448.60;;;417.33;;
67051;SDS011;53957;47.222;18.670;2022-07-30T02:50:02;425.17;;;394.62;;
67051;SDS011;53957;47.222;18.670;2022-07-30T02:53:09;428.77;;;398.55;;
67051;SDS011;53957;47.222;18.670;2022-07-30T02:56:14;422.13;;;392.62;;
67051;SDS011;53957;47.222;18.670;2022-07-30T02:59:19;425.85;;;395.85;;
67051;SDS011;53957;47.222;18.670;2022-07-30T03:02:23;405.33;;;376.52;;
67051;SDS011;53957;47.222;18.670;2022-07-30T03:05:31;430.63;;;400.50;;
67051;SDS011;53957;47.222;18.670;2022-07-30T03:08:35;424.25;;;394.60;;
67051;SDS011;53957;47.222;18.670;2022-07-30T03:11:38;431.35;;;401.08;;
67051;SDS011;53957;47.222;18.670;2022-07-30T03:14:42;418.92;;;390.17;;
67051;SDS011;53957;47.222;18.670;2022-07-30T03:17:48;407.02;;;378.75;;
67051;SDS011;53957;47.222;18.670;2022-07-30T03:20:55;435.73;;;405.77;;
67051;SDS011;53957;47.222;18.670;2022-07-30T03:24:00;377.55;;;351.67;;
67051;SDS011;53957;47.222;18.670;2022-07-30T03:27:05;400.08;;;372.83;;
67051;SDS011;53957;47.222;18.670;2022-07-30T03:30:09;363.30;;;338.95;;
67051;SDS011;53957;47.222;18.670;2022-07-30T03:33:15;378.08;;;352.15;;
67051;SDS011;53957;47.222;18.670;2022-07-30T03:36:19;362.77;;;338.30;;
67051;SDS011;53957;47.222;18.670;2022-07-30T03:39:22;388.02;;;361.27;;
67051;SDS011;53957;47.222;18.670;2022-07-30T03:42:25;359.15;;;334.90;;
67051;SDS011;53957;47.222;18.670;2022-07-30T03:45:29;380.60;;;354.65;;
67051;SDS011;53957;47.222;18.670;2022-07-30T03:48:33;362.12;;;337.58;;
67051;SDS011;53957;47.222;18.670;2022-07-30T03:51:37;349.10;;;325.75;;
67051;SDS011;53957;47.222;18.670;2022-07-30T03:54:40;392.70;;;364.98;;
67051;SDS011;53957;47.222;18.670;2022-07-30T03:57:45;378.08;;;351.37;;
67051;SDS011;53957;47.222;18.670;2022-07-30T04:00:49;369.08;;;344.17;;
67051;SDS011;53957;47.222;18.670;2022-07-30T04:03:52;348.60;;;324.98;;
67051;SDS011;53957;47.222;18.670;2022-07-30T04:06:56;367.73;;;342.58;;
67051;SDS011;53957;47.222;18.670;2022-07-30T04:10:00;366.12;;;341.35;;
67051;SDS011;53957;47.222;18.670;2022-07-30T04:13:03;382.25;;;355.55;;
67051;SDS011;53957;47.222;18.670;2022-07-30T04:16:55;385.35;;;358.17;;
67051;SDS011;53957;47.222;18.670;2022-07-30T04:19:59;367.83;;;342.70;;
67051;SDS011;53957;47.222;18.670;2022-07-30T04:23:09;375.85;;;349.85;;
67051;SDS011;53957;47.222;18.670;2022-07-30T04:26:16;398.42;;;370.05;;
67051;SDS011;53957;47.222;18.670;2022-07-30T04:29:21;386.25;;;359.08;;
67051;SDS011;53957;47.222;18.670;2022-07-30T04:32:26;386.83;;;359.92;;
67051;SDS011;53957;47.222;18.670;2022-07-30T04:35:31;415.95;;;386.10;;
67051;SDS011;53957;47.222;18.670;2022-07-30T04:38:53;398.13;;;369.65;;
67051;SDS011;53957;47.222;18.670;2022-07-30T04:41:56;413.63;;;384.48;;
67051;SDS011;53957;47.222;18.670;2022-07-30T04:44:59;395.65;;;367.23;;
67051;SDS011;53957;47.222;18.670;2022-07-30T04:48:02;400.17;;;371.13;;
67051;SDS011;53957;47.222;18.670;2022-07-30T04:51:08;398.00;;;369.62;;
67051;SDS011;53957;47.222;18.670;2022-07-30T04:54:15;394.08;;;365.67;;
67051;SDS011;53957;47.222;18.670;2022-07-30T04:57:20;418.77;;;386.12;;
67051;SDS011;53957;47.222;18.670;2022-07-30T05:00:24;390.20;;;361.77;;
67051;SDS011;53957;47.222;18.670;2022-07-30T05:03:27;377.87;;;350.80;;
67051;SDS011;53957;47.222;18.670;2022-07-30T05:06:31;415.00;;;384.40;;
67051;SDS011;53957;47.222;18.670;2022-07-30T05:09:35;382.50;;;354.50;;
67051;SDS011;53957;47.222;18.670;2022-07-30T05:12:39;378.65;;;351.45;;
67051;SDS011;53957;47.222;18.670;2022-07-30T05:15:42;388.98;;;360.73;;
67051;SDS011;53957;47.222;18.670;2022-07-30T05:18:50;346.05;;;321.02;;
67051;SDS011;53957;47.222;18.670;2022-07-30T05:21:53;362.48;;;335.73;;
67051;SDS011;53957;47.222;18.670;2022-07-30T05:24:56;339.65;;;315.08;;
67051;SDS011;53957;47.222;18.670;2022-07-30T05:27:59;419.13;;;386.90;;
67051;SDS011;53957;47.222;18.670;2022-07-30T05:31:02;339.85;;;314.50;;
67051;SDS011;53957;47.222;18.670;2022-07-30T05:34:10;409.13;;;376.77;;
67051;SDS011;53957;47.222;18.670;2022-07-30T05:37:14;310.77;;;288.60;;
67051;SDS011;53957;47.222;18.670;2022-07-30T05:40:17;336.87;;;312.33;;
67051;SDS011;53957;47.222;18.670;2022-07-30T05:43:22;394.67;;;365.20;;
67051;SDS011;53957;47.222;18.670;2022-07-30T05:46:25;332.92;;;308.67;;
67051;SDS011;53957;47.222;18.670;2022-07-30T05:49:29;297.00;;;274.95;;
67051;SDS011;53957;47.222;18.670;2022-07-30T05:52:34;298.87;;;277.30;;
67051;SDS011;53957;47.222;18.670;2022-07-30T05:55:38;362.83;;;334.65;;
67051;SDS011;53957;47.222;18.670;2022-07-30T05:59:00;286.55;;;265.80;;
67051;SDS011;53957;47.222;18.670;2022-07-30T06:02:04;313.15;;;289.98;;
67051;SDS011;53957;47.222;18.670;2022-07-30T06:05:08;183.68;;;170.48;;
67051;SDS011;53957;47.222;18.670;2022-07-30T06:08:11;279.02;;;258.75;;
67051;SDS011;53957;47.222;18.670;2022-07-30T06:11:15;299.95;;;278.10;;
67051;SDS011;53957;47.222;18.670;2022-07-30T06:14:18;351.10;;;324.40;;
67051;SDS011;53957;47.222;18.670;2022-07-30T06:17:21;283.45;;;262.20;;
67051;SDS011;53957;47.222;18.670;2022-07-30T06:20:26;284.20;;;263.40;;
67051;SDS011;53957;47.222;18.670;2022-07-30T06:23:30;247.48;;;229.65;;
67051;SDS011;53957;47.222;18.670;2022-07-30T06:26:34;250.73;;;232.52;;
67051;SDS011;53957;47.222;18.670;2022-07-30T06:29:38;279.63;;;258.98;;
67051;SDS011;53957;47.222;18.670;2022-07-30T06:32:41;269.50;;;249.82;;
67051;SDS011;53957;47.222;18.670;2022-07-30T06:35:45;350.38;;;322.52;;
67051;SDS011;53957;47.222;18.670;2022-07-30T06:38:49;285.33;;;264.05;;
67051;SDS011;53957;47.222;18.670;2022-07-30T06:41:54;395.17;;;363.30;;
67051;SDS011;53957;47.222;18.670;2022-07-30T06:45:00;247.88;;;230.07;;
67051;SDS011;53957;47.222;18.670;2022-07-30T06:48:04;366.25;;;337.35;;
67051;SDS011;53957;47.222;18.670;2022-07-30T06:51:07;280.67;;;260.20;;
67051;SDS011;53957;47.222;18.670;2022-07-30T06:54:10;472.80;;;432.38;;
67051;SDS011;53957;47.222;18.670;2022-07-30T06:57:14;377.15;;;346.42;;
67051;SDS011;53957;47.222;18.670;2022-07-30T07:00:18;385.83;;;355.83;;
67051;SDS011;53957;47.222;18.670;2022-07-30T07:03:21;375.60;;;346.40;;
67051;SDS011;53957;47.222;18.670;2022-07-30T07:06:25;229.18;;;212.73;;
67051;SDS011;53957;47.222;18.670;2022-07-30T07:09:28;255.95;;;237.10;;
67051;SDS011;53957;47.222;18.670;2022-07-30T07:12:33;252.55;;;233.93;;
67051;SDS011;53957;47.222;18.670;2022-07-30T07:15:36;234.57;;;217.15;;
67051;SDS011;53957;47.222;18.670;2022-07-30T07:18:39;200.05;;;185.07;;
67051;SDS011;53957;47.222;18.670;2022-07-30T07:21:42;175.15;;;161.95;;
67051;SDS011;53957;47.222;18.670;2022-07-30T07:24:45;194.55;;;180.12;;
67051;SDS011;53957;47.222;18.670;2022-07-30T07:27:51;173.62;;;160.70;;
67051;SDS011;53957;47.222;18.670;2022-07-30T07:31:14;167.37;;;155.45;;
67051;SDS011;53957;47.222;18.670;2022-07-30T07:34:37;172.75;;;159.20;;
67051;SDS011;53957;47.222;18.670;2022-07-30T07:37:40;170.50;;;158.20;;
67051;SDS011;53957;47.222;18.670;2022-07-30T07:40:45;152.43;;;140.93;;
67051;SDS011;53957;47.222;18.670;2022-07-30T07:43:49;153.40;;;142.32;;
67051;SDS011;53957;47.222;18.670;2022-07-30T07:46:53;150.85;;;139.75;;
67051;SDS011;53957;47.222;18.670;2022-07-30T07:49:57;153.68;;;142.07;;
67051;SDS011;53957;47.222;18.670;2022-07-30T07:53:00;159.23;;;147.40;;
67051;SDS011;53957;47.222;18.670;2022-07-30T07:56:03;153.15;;;141.88;;
67051;SDS011;53957;47.222;18.670;2022-07-30T07:59:10;139.50;;;129.07;;
67051;SDS011;53957;47.222;18.670;2022-07-30T08:02:16;144.75;;;133.50;;
67051;SDS011;53957;47.222;18.670;2022-07-30T08:05:20;150.90;;;137.85;;
67051;SDS011;53957;47.222;18.670;2022-07-30T08:08:23;149.80;;;138.85;;
67051;SDS011;53957;47.222;18.670;2022-07-30T08:11:28;157.23;;;145.43;;
67051;SDS011;53957;47.222;18.670;2022-07-30T08:14:33;168.18;;;155.40;;
67051;SDS011;53957;47.222;18.670;2022-07-30T08:17:43;188.18;;;173.90;;
67051;SDS011;53957;47.222;18.670;2022-07-30T08:20:47;171.48;;;158.60;;
67051;SDS011;53957;47.222;18.670;2022-07-30T08:23:53;187.18;;;173.00;;
67051;SDS011;53957;47.222;18.670;2022-07-30T08:26:56;192.18;;;178.05;;
67051;SDS011;53957;47.222;18.670;2022-07-30T08:30:06;195.00;;;181.00;;
67051;SDS011;53957;47.222;18.670;2022-07-30T08:33:10;197.25;;;183.25;;
67051;SDS011;53957;47.222;18.670;2022-07-30T08:36:13;223.05;;;206.77;;
67051;SDS011;53957;47.222;18.670;2022-07-30T08:39:17;222.20;;;206.27;;
67051;SDS011;53957;47.222;18.670;2022-07-30T08:42:20;254.45;;;236.48;;
67051;SDS011;53957;47.222;18.670;2022-07-30T08:45:23;251.20;;;233.77;;
67051;SDS011;53957;47.222;18.670;2022-07-30T08:48:37;247.05;;;229.60;;
67051;SDS011;53957;47.222;18.670;2022-07-30T08:51:42;229.02;;;213.12;;
67051;SDS011;53957;47.222;18.670;2022-07-30T08:54:46;225.15;;;209.15;;
67051;SDS011;53957;47.222;18.670;2022-07-30T08:57:49;223.70;;;208.07;;
67051;SDS011;53957;47.222;18.670;2022-07-30T09:00:53;207.73;;;193.18;;
67051;SDS011;53957;47.222;18.670;2022-07-30T09:07:10;234.37;;;217.07;;
67051;SDS011;53957;47.222;18.670;2022-07-30T09:10:13;197.25;;;182.85;;
67051;SDS011;53957;47.222;18.670;2022-07-30T09:16:26;205.95;;;190.45;;
67051;SDS011;53957;47.222;18.670;2022-07-30T09:19:30;168.98;;;157.00;;
67051;SDS011;53957;47.222;18.670;2022-07-30T09:22:46;210.63;;;194.82;;
67051;SDS011;53957;47.222;18.670;2022-07-30T09:25:57;253.32;;;234.45;;
67051;SDS011;53957;47.222;18.670;2022-07-30T09:29:14;206.73;;;192.10;;
67051;SDS011;53957;47.222;18.670;2022-07-30T09:32:52;213.37;;;198.43;;
67051;SDS011;53957;47.222;18.670;2022-07-30T09:36:00;231.25;;;215.20;;
67051;SDS011;53957;47.222;18.670;2022-07-30T09:39:29;232.95;;;216.80;;
67051;SDS011;53957;47.222;18.670;2022-07-30T09:42:35;215.15;;;200.00;;
67051;SDS011;53957;47.222;18.670;2022-07-30T09:45:55;199.40;;;184.55;;
67051;SDS011;53957;47.222;18.670;2022-07-30T09:49:12;199.23;;;184.43;;
67051;SDS011;53957;47.222;18.670;2022-07-30T09:52:28;204.63;;;189.35;;
67051;SDS011;53957;47.222;18.670;2022-07-30T09:55:32;228.82;;;211.95;;
67051;SDS011;53957;47.222;18.670;2022-07-30T09:58:43;195.02;;;180.50;;
67051;SDS011;53957;47.222;18.670;2022-07-30T10:01:51;159.30;;;147.68;;
67051;SDS011;53957;47.222;18.670;2022-07-30T10:08:16;122.97;;;114.25;;
67051;SDS011;53957;47.222;18.670;2022-07-30T10:11:21;147.87;;;137.18;;
67051;SDS011;53957;47.222;18.670;2022-07-30T10:14:33;127.15;;;118.10;;
67051;SDS011;53957;47.222;18.670;2022-07-30T10:17:44;137.70;;;127.40;;
67051;SDS011;53957;47.222;18.670;2022-07-30T10:20:50;127.03;;;117.20;;
67051;SDS011;53957;47.222;18.670;2022-07-30T10:24:00;144.52;;;133.90;;
67051;SDS011;53957;47.222;18.670;2022-07-30T10:27:11;129.50;;;119.95;;
67051;SDS011;53957;47.222;18.670;2022-07-30T10:30:17;123.20;;;114.50;;
67051;SDS011;53957;47.222;18.670;2022-07-30T10:36:42;143.98;;;133.23;;
67051;SDS011;53957;47.222;18.670;2022-07-30T10:39:51;128.07;;;118.55;;
67051;SDS011;53957;47.222;18.670;2022-07-30T10:50:07;99.13;;;92.45;;
67051;SDS011;53957;47.222;18.670;2022-07-30T10:56:41;89.97;;;84.00;;
67051;SDS011;53957;47.222;18.670;2022-07-30T11:03:15;106.22;;;98.75;;
67051;SDS011;53957;47.222;18.670;2022-07-30T11:09:39;114.72;;;106.70;;
67051;SDS011;53957;47.222;18.670;2022-07-30T11:15:58;104.57;;;97.65;;
67051;SDS011;53957;47.222;18.670;2022-07-30T11:19:15;111.80;;;103.63;;
67051;SDS011;53957;47.222;18.670;2022-07-30T11:22:39;105.45;;;98.43;;
67051;SDS011;53957;47.222;18.670;2022-07-30T11:25:52;115.50;;;107.63;;
67051;SDS011;53957;47.222;18.670;2022-07-30T11:28:56;90.40;;;84.47;;
67051;SDS011;53957;47.222;18.670;2022-07-30T11:35:31;99.85;;;93.18;;
67051;SDS011;53957;47.222;18.670;2022-07-30T11:38:54;95.85;;;89.50;;
67051;SDS011;53957;47.222;18.670;2022-07-30T11:45:29;78.05;;;73.12;;
67051;SDS011;53957;47.222;18.670;2022-07-30T11:48:37;87.80;;;82.20;;
67051;SDS011;53957;47.222;18.670;2022-07-30T11:51:45;78.72;;;73.90;;
67051;SDS011;53957;47.222;18.670;2022-07-30T11:54:53;86.80;;;81.32;;
67051;SDS011;53957;47.222;18.670;2022-07-30T11:57:56;84.97;;;79.55;;
67051;SDS011;53957;47.222;18.670;2022-07-30T12:01:01;74.00;;;69.35;;
67051;SDS011;53957;47.222;18.670;2022-07-30T12:04:15;77.47;;;72.70;;
67051;SDS011;53957;47.222;18.670;2022-07-30T12:07:22;81.53;;;76.53;;
67051;SDS011;53957;47.222;18.670;2022-07-30T12:10:25;82.72;;;77.40;;
67051;SDS011;53957;47.222;18.670;2022-07-30T12:13:29;77.07;;;72.25;;
67051;SDS011;53957;47.222;18.670;2022-07-30T12:16:50;76.93;;;72.18;;
67051;SDS011;53957;47.222;18.670;2022-07-30T12:19:55;82.10;;;76.97;;
67051;SDS011;53957;47.222;18.670;2022-07-30T12:22:58;81.12;;;75.95;;
67051;SDS011;53957;47.222;18.670;2022-07-30T12:26:00;74.90;;;70.37;;
67051;SDS011;53957;47.222;18.670;2022-07-30T12:29:07;79.03;;;74.20;;
67051;SDS011;53957;47.222;18.670;2022-07-30T12:32:12;73.72;;;69.28;;
67051;SDS011;53957;47.222;18.670;2022-07-30T12:35:15;75.68;;;70.87;;
67051;SDS011;53957;47.222;18.670;2022-07-30T12:38:19;69.57;;;65.43;;
67051;SDS011;53957;47.222;18.670;2022-07-30T12:41:39;71.45;;;66.90;;
67051;SDS011;53957;47.222;18.670;2022-07-30T12:44:45;69.00;;;64.78;;
67051;SDS011;53957;47.222;18.670;2022-07-30T12:47:50;73.22;;;68.75;;
67051;SDS011;53957;47.222;18.670;2022-07-30T12:51:06;70.03;;;65.82;;
67051;SDS011;53957;47.222;18.670;2022-07-30T12:54:14;62.03;;;58.20;;
67051;SDS011;53957;47.222;18.670;2022-07-30T12:57:20;61.92;;;58.13;;
67051;SDS011;53957;47.222;18.670;2022-07-30T13:00:45;64.80;;;60.90;;
67051;SDS011;53957;47.222;18.670;2022-07-30T13:04:03;60.75;;;56.80;;
67051;SDS011;53957;47.222;18.670;2022-07-30T13:10:13;68.30;;;63.85;;
67051;SDS011;53957;47.222;18.670;2022-07-30T13:13:20;62.08;;;58.42;;
67051;SDS011;53957;47.222;18.670;2022-07-30T13:16:23;65.35;;;61.42;;
67051;SDS011;53957;47.222;18.670;2022-07-30T13:19:25;73.57;;;69.03;;
67051;SDS011;53957;47.222;18.670;2022-07-30T13:22:29;69.32;;;65.07;;
67051;SDS011;53957;47.222;18.670;2022-07-30T13:25:32;68.95;;;64.82;;
67051;SDS011;53957;47.222;18.670;2022-07-30T13:28:41;72.55;;;68.15;;
67051;SDS011;53957;47.222;18.670;2022-07-30T13:31:45;64.25;;;60.50;;
67051;SDS011;53957;47.222;18.670;2022-07-30T13:34:47;63.53;;;59.50;;
67051;SDS011;53957;47.222;18.670;2022-07-30T13:37:53;58.70;;;55.17;;
67051;SDS011;53957;47.222;18.670;2022-07-30T13:40:58;61.22;;;57.62;;
67051;SDS011;53957;47.222;18.670;2022-07-30T13:44:04;59.90;;;56.28;;
67051;SDS011;53957;47.222;18.670;2022-07-30T13:47:07;62.62;;;58.65;;
67051;SDS011;53957;47.222;18.670;2022-07-30T13:50:11;59.22;;;55.58;;
67051;SDS011;53957;47.222;18.670;2022-07-30T13:53:13;67.55;;;63.20;;
67051;SDS011;53957;47.222;18.670;2022-07-30T13:56:17;59.95;;;56.15;;
67051;SDS011;53957;47.222;18.670;2022-07-30T13:59:21;61.28;;;57.53;;
67051;SDS011;53957;47.222;18.670;2022-07-30T14:02:24;60.75;;;56.88;;
67051;SDS011;53957;47.222;18.670;2022-07-30T14:05:29;55.75;;;52.45;;
67051;SDS011;53957;47.222;18.670;2022-07-30T14:08:32;58.13;;;54.53;;
67051;SDS011;53957;47.222;18.670;2022-07-30T14:11:35;55.33;;;52.00;;
67051;SDS011;53957;47.222;18.670;2022-07-30T14:14:38;53.90;;;50.45;;
67051;SDS011;53957;47.222;18.670;2022-07-30T14:17:41;55.55;;;52.20;;
67051;SDS011;53957;47.222;18.670;2022-07-30T14:20:57;55.05;;;51.67;;
67051;SDS011;53957;47.222;18.670;2022-07-30T14:24:00;56.80;;;53.33;;
67051;SDS011;53957;47.222;18.670;2022-07-30T14:27:04;63.15;;;58.63;;
67051;SDS011;53957;47.222;18.670;2022-07-30T14:30:08;58.60;;;55.08;;
67051;SDS011;53957;47.222;18.670;2022-07-30T14:33:12;53.53;;;50.28;;
67051;SDS011;53957;47.222;18.670;2022-07-30T14:36:15;56.05;;;52.62;;
67051;SDS011;53957;47.222;18.670;2022-07-30T14:39:18;58.83;;;55.15;;
67051;SDS011;53957;47.222;18.670;2022-07-30T14:42:22;54.45;;;51.10;;
67051;SDS011;53957;47.222;18.670;2022-07-30T14:45:26;53.28;;;49.95;;
67051;SDS011;53957;47.222;18.670;2022-07-30T14:48:30;51.15;;;47.97;;
67051;SDS011;53957;47.222;18.670;2022-07-30T14:51:33;51.83;;;48.78;;
67051;SDS011;53957;47.222;18.670;2022-07-30T14:54:36;69.12;;;64.37;;
67051;SDS011;53957;47.222;18.670;2022-07-30T14:57:39;53.60;;;50.25;;
67051;SDS011;53957;47.222;18.670;2022-07-30T15:00:42;55.33;;;51.88;;
67051;SDS011;53957;47.222;18.670;2022-07-30T15:03:50;59.95;;;55.80;;
67051;SDS011;53957;47.222;18.670;2022-07-30T15:06:53;62.90;;;58.78;;
67051;SDS011;53957;47.222;18.670;2022-07-30T15:09:56;56.78;;;53.03;;
67051;SDS011;53957;47.222;18.670;2022-07-30T15:12:59;64.43;;;59.88;;
67051;SDS011;53957;47.222;18.670;2022-07-30T15:16:01;61.78;;;57.83;;
67051;SDS011;53957;47.222;18.670;2022-07-30T15:19:04;62.70;;;58.67;;
67051;SDS011;53957;47.222;18.670;2022-07-30T15:22:07;58.70;;;54.72;;
67051;SDS011;53957;47.222;18.670;2022-07-30T15:25:10;56.88;;;53.17;;
67051;SDS011;53957;47.222;18.670;2022-07-30T15:28:13;55.12;;;51.67;;
67051;SDS011;53957;47.222;18.670;2022-07-30T15:31:21;60.38;;;56.67;;
67051;SDS011;53957;47.222;18.670;2022-07-30T15:34:25;57.20;;;53.30;;
67051;SDS011;53957;47.222;18.670;2022-07-30T15:37:29;55.70;;;52.15;;
67051;SDS011;53957;47.222;18.670;2022-07-30T15:40:32;55.38;;;51.80;;
67051;SDS011;53957;47.222;18.670;2022-07-30T15:43:38;56.53;;;52.78;;
67051;SDS011;53957;47.222;18.670;2022-07-30T15:46:42;62.53;;;58.17;;
67051;SDS011;53957;47.222;18.670;2022-07-30T15:49:45;58.72;;;54.58;;
67051;SDS011;53957;47.222;18.670;2022-07-30T15:52:48;63.28;;;58.97;;
67051;SDS011;53957;47.222;18.670;2022-07-30T15:55:51;54.53;;;50.85;;
67051;SDS011;53957;47.222;18.670;2022-07-30T15:58:54;56.50;;;52.47;;
67051;SDS011;53957;47.222;18.670;2022-07-30T16:02:03;59.30;;;55.30;;
67051;SDS011;53957;47.222;18.670;2022-07-30T16:05:07;59.40;;;55.45;;
67051;SDS011;53957;47.222;18.670;2022-07-30T16:08:15;56.58;;;52.65;;
67051;SDS011;53957;47.222;18.670;2022-07-30T16:11:19;57.62;;;53.53;;
67051;SDS011;53957;47.222;18.670;2022-07-30T16:14:22;50.08;;;46.70;;
67051;SDS011;53957;47.222;18.670;2022-07-30T16:17:27;56.33;;;52.58;;
67051;SDS011;53957;47.222;18.670;2022-07-30T16:20:31;54.30;;;50.67;;
67051;SDS011;53957;47.222;18.670;2022-07-30T16:23:34;56.72;;;53.20;;
67051;SDS011;53957;47.222;18.670;2022-07-30T16:26:40;65.10;;;60.75;;
67051;SDS011;53957;47.222;18.670;2022-07-30T16:29:43;58.42;;;54.58;;
67051;SDS011;53957;47.222;18.670;2022-07-30T16:32:46;56.22;;;52.50;;
67051;SDS011;53957;47.222;18.670;2022-07-30T16:35:50;51.55;;;48.15;;
67051;SDS011;53957;47.222;18.670;2022-07-30T16:38:52;61.10;;;56.95;;
67051;SDS011;53957;47.222;18.670;2022-07-30T16:41:55;53.33;;;49.65;;
67051;SDS011;53957;47.222;18.670;2022-07-30T16:44:58;59.13;;;55.08;;
67051;SDS011;53957;47.222;18.670;2022-07-30T16:48:02;60.35;;;56.13;;
67051;SDS011;53957;47.222;18.670;2022-07-30T16:51:05;57.08;;;53.13;;
67051;SDS011;53957;47.222;18.670;2022-07-30T16:54:10;70.50;;;65.57;;
67051;SDS011;53957;47.222;18.670;2022-07-30T16:57:14;52.33;;;48.97;;
67051;SDS011;53957;47.222;18.670;2022-07-30T17:00:17;60.95;;;56.88;;
67051;SDS011;53957;47.222;18.670;2022-07-30T17:03:20;63.22;;;58.90;;
67051;SDS011;53957;47.222;18.670;2022-07-30T17:06:23;56.17;;;52.58;;
67051;SDS011;53957;47.222;18.670;2022-07-30T17:09:26;65.25;;;60.75;;
67051;SDS011;53957;47.222;18.670;2022-07-30T17:12:38;69.45;;;64.65;;
67051;SDS011;53957;47.222;18.670;2022-07-30T17:15:41;76.93;;;71.57;;
67051;SDS011;53957;47.222;18.670;2022-07-30T17:18:46;58.13;;;54.13;;
67051;SDS011;53957;47.222;18.670;2022-07-30T17:21:49;62.20;;;57.92;;
67051;SDS011;53957;47.222;18.670;2022-07-30T17:24:56;64.40;;;59.92;;
67051;SDS011;53957;47.222;18.670;2022-07-30T17:27:59;64.12;;;59.65;;
67051;SDS011;53957;47.222;18.670;2022-07-30T17:31:03;60.90;;;56.70;;
67051;SDS011;53957;47.222;18.670;2022-07-30T18:18:23;85.60;;;79.45;;
67051;SDS011;53957;47.222;18.670;2022-07-30T18:21:26;81.95;;;76.05;;
67051;SDS011;53957;47.222;18.670;2022-07-30T18:24:29;79.43;;;73.80;;
67051;SDS011;53957;47.222;18.670;2022-07-30T18:27:33;75.97;;;70.47;;
67051;SDS011;53957;47.222;18.670;2022-07-30T18:30:35;79.45;;;73.82;;
67051;SDS011;53957;47.222;18.670;2022-07-30T18:33:39;83.75;;;77.87;;
67051;SDS011;53957;47.222;18.670;2022-07-30T18:36:41;65.82;;;61.05;;
67051;SDS011;53957;47.222;18.670;2022-07-30T18:39:44;70.53;;;65.40;;
67051;SDS011;53957;47.222;18.670;2022-07-30T18:42:47;73.70;;;68.32;;
67051;SDS011;53957;47.222;18.670;2022-07-30T18:45:51;77.10;;;71.43;;
67051;SDS011;53957;47.222;18.670;2022-07-30T18:48:54;76.25;;;70.78;;
67051;SDS011;53957;47.222;18.670;2022-07-30T18:51:58;64.30;;;59.67;;
67051;SDS011;53957;47.222;18.670;2022-07-30T18:55:04;63.00;;;58.58;;
67051;SDS011;53957;47.222;18.670;2022-07-30T18:58:09;73.70;;;68.28;;
67051;SDS011;53957;47.222;18.670;2022-07-30T19:01:12;81.40;;;75.65;;
67051;SDS011;53957;47.222;18.670;2022-07-30T19:04:15;75.55;;;69.82;;